Terminal Aerodrome Forecast
Issued by NWS Goodland, KS

Home | Current Version | Previous Version | Text Only | Print | Product List | Glossary On
Versions: 1 2 3 4 5 6 7 8 9 10 11 12 13 14 15 16
833
FTUS43 KGLD 191134
TAFGLD
TAF
KGLD 191134Z 1912/2012 VRB03KT P6SM OVC006
      TEMPO 1913/1915 SCT006
     FM191500 32005KT P6SM SKC
     FM200100 25005KT P6SM SKC=

USA.gov is the U.S. government's official web portal to all federal, state and local government web resources and services.